sensor_id;sensor_type;location;lat;lon;timestamp;temperature;humidity
29817;DHT22;16805;52.956;5.906;2024-02-23T00:20:17;6.50;99.90
29817;DHT22;16805;52.956;5.906;2024-02-23T00:23:17;6.30;99.90
29817;DHT22;16805;52.956;5.906;2024-02-23T00:33:10;6.20;99.90
29817;DHT22;16805;52.956;5.906;2024-02-23T00:39:10;6.30;99.90
29817;DHT22;16805;52.956;5.906;2024-02-23T00:45:55;6.20;99.90
29817;DHT22;16805;52.956;5.906;2024-02-23T00:52:10;6.30;99.90
29817;DHT22;16805;52.956;5.906;2024-02-23T01:05:36;6.30;99.90
29817;DHT22;16805;52.956;5.906;2024-02-23T01:09:01;6.30;99.90
29817;DHT22;16805;52.956;5.906;2024-02-23T01:11:49;6.30;99.90
29817;DHT22;16805;52.956;5.906;2024-02-23T01:15:15;6.40;99.90
29817;DHT22;16805;52.956;5.906;2024-02-23T01:17:54;6.40;99.90
29817;DHT22;16805;52.956;5.906;2024-02-23T01:20:27;6.50;99.90
29817;DHT22;16805;52.956;5.906;2024-02-23T01:22:57;6.50;99.90
29817;DHT22;16805;52.956;5.906;2024-02-23T01:25:58;6.50;99.90
29817;DHT22;16805;52.956;5.906;2024-02-23T01:28:42;6.60;99.90
29817;DHT22;16805;52.956;5.906;2024-02-23T01:34:55;6.60;99.90
29817;DHT22;16805;52.956;5.906;2024-02-23T01:37:47;6.70;99.90
29817;DHT22;16805;52.956;5.906;2024-02-23T01:40:18;6.70;99.90
29817;DHT22;16805;52.956;5.906;2024-02-23T01:43:08;6.70;99.90
29817;DHT22;16805;52.956;5.906;2024-02-23T01:49:00;6.70;99.90
29817;DHT22;16805;52.956;5.906;2024-02-23T01:51:35;6.80;99.90
29817;DHT22;16805;52.956;5.906;2024-02-23T01:54:42;6.80;99.90
29817;DHT22;16805;52.956;5.906;2024-02-23T02:05:54;6.80;99.90
29817;DHT22;16805;52.956;5.906;2024-02-23T02:09:24;6.90;99.90
29817;DHT22;16805;52.956;5.906;2024-02-23T02:11:54;6.80;99.90
29817;DHT22;16805;52.956;5.906;2024-02-23T02:14:22;6.80;99.90
29817;DHT22;16805;52.956;5.906;2024-02-23T02:17:34;6.80;99.90
29817;DHT22;16805;52.956;5.906;2024-02-23T02:23:52;6.80;99.90
29817;DHT22;16805;52.956;5.906;2024-02-23T02:26:46;6.90;99.90
29817;DHT22;16805;52.956;5.906;2024-02-23T02:29:16;6.80;99.90
29817;DHT22;16805;52.956;5.906;2024-02-23T02:31:45;6.80;99.90
29817;DHT22;16805;52.956;5.906;2024-02-23T02:34:12;6.80;99.90
29817;DHT22;16805;52.956;5.906;2024-02-23T02:36:40;6.80;99.90
29817;DHT22;16805;52.956;5.906;2024-02-23T02:39:10;6.80;99.90
29817;DHT22;16805;52.956;5.906;2024-02-23T02:41:40;6.80;99.90
29817;DHT22;16805;52.956;5.906;2024-02-23T02:44:07;6.90;99.90
29817;DHT22;16805;52.956;5.906;2024-02-23T02:46:35;6.80;99.90
29817;DHT22;16805;52.956;5.906;2024-02-23T03:14:00;6.80;99.90
29817;DHT22;16805;52.956;5.906;2024-02-23T03:16:44;6.80;99.90
29817;DHT22;16805;52.956;5.906;2024-02-23T03:20:10;6.80;99.90
29817;DHT22;16805;52.956;5.906;2024-02-23T03:22:38;6.80;99.90
29817;DHT22;16805;52.956;5.906;2024-02-23T03:25:06;6.80;99.90
29817;DHT22;16805;52.956;5.906;2024-02-23T03:27:37;6.80;99.90
29817;DHT22;16805;52.956;5.906;2024-02-23T03:30:03;6.80;99.90
29817;DHT22;16805;52.956;5.906;2024-02-23T03:32:30;6.80;99.90
29817;DHT22;16805;52.956;5.906;2024-02-23T03:35:06;6.80;99.90
29817;DHT22;16805;52.956;5.906;2024-02-23T03:37:38;6.80;99.90
29817;DHT22;16805;52.956;5.906;2024-02-23T03:40:06;6.70;99.90
29817;DHT22;16805;52.956;5.906;2024-02-23T03:42:36;6.70;99.90
29817;DHT22;16805;52.956;5.906;2024-02-23T03:45:06;6.70;99.90
29817;DHT22;16805;52.956;5.906;2024-02-23T03:47:42;6.70;99.90
29817;DHT22;16805;52.956;5.906;2024-02-23T03:50:08;6.70;99.90
29817;DHT22;16805;52.956;5.906;2024-02-23T03:52:38;6.70;99.90
29817;DHT22;16805;52.956;5.906;2024-02-23T03:55:10;6.60;99.90
29817;DHT22;16805;52.956;5.906;2024-02-23T03:57:37;6.70;99.90
29817;DHT22;16805;52.956;5.906;2024-02-23T04:00:05;6.70;99.90
29817;DHT22;16805;52.956;5.906;2024-02-23T04:02:34;6.60;99.90
29817;DHT22;16805;52.956;5.906;2024-02-23T04:05:15;6.60;99.90
29817;DHT22;16805;52.956;5.906;2024-02-23T04:07:44;6.60;99.90
29817;DHT22;16805;52.956;5.906;2024-02-23T04:10:10;6.60;99.90
29817;DHT22;16805;52.956;5.906;2024-02-23T04:12:49;6.60;99.90
29817;DHT22;16805;52.956;5.906;2024-02-23T04:15:18;6.60;99.90
29817;DHT22;16805;52.956;5.906;2024-02-23T04:17:46;6.60;99.90
29817;DHT22;16805;52.956;5.906;2024-02-23T04:20:16;6.60;99.90
29817;DHT22;16805;52.956;5.906;2024-02-23T04:22:43;6.60;99.90
29817;DHT22;16805;52.956;5.906;2024-02-23T04:25:11;6.60;99.90
29817;DHT22;16805;52.956;5.906;2024-02-23T04:27:43;6.60;99.90
29817;DHT22;16805;52.956;5.906;2024-02-23T04:30:18;6.50;99.90
29817;DHT22;16805;52.956;5.906;2024-02-23T04:33:18;6.50;99.90
29817;DHT22;16805;52.956;5.906;2024-02-23T04:36:08;6.60;99.90
29817;DHT22;16805;52.956;5.906;2024-02-23T04:38:39;6.50;99.90
29817;DHT22;16805;52.956;5.906;2024-02-23T04:41:05;6.50;99.90
29817;DHT22;16805;52.956;5.906;2024-02-23T04:43:31;6.50;99.90
29817;DHT22;16805;52.956;5.906;2024-02-23T04:45:57;6.50;99.90
29817;DHT22;16805;52.956;5.906;2024-02-23T04:48:23;6.50;99.90
29817;DHT22;16805;52.956;5.906;2024-02-23T04:50:58;6.50;99.90
29817;DHT22;16805;52.956;5.906;2024-02-23T04:53:27;6.50;99.90
29817;DHT22;16805;52.956;5.906;2024-02-23T04:55:54;6.50;99.90
29817;DHT22;16805;52.956;5.906;2024-02-23T04:58:19;6.50;99.90
29817;DHT22;16805;52.956;5.906;2024-02-23T05:00:46;6.50;99.90
29817;DHT22;16805;52.956;5.906;2024-02-23T05:03:13;6.50;99.90
29817;DHT22;16805;52.956;5.906;2024-02-23T05:05:40;6.50;99.90
29817;DHT22;16805;52.956;5.906;2024-02-23T05:08:09;6.50;99.90
29817;DHT22;16805;52.956;5.906;2024-02-23T05:10:35;6.50;99.90
29817;DHT22;16805;52.956;5.906;2024-02-23T05:13:02;6.50;99.90
29817;DHT22;16805;52.956;5.906;2024-02-23T05:15:27;6.50;99.90
29817;DHT22;16805;52.956;5.906;2024-02-23T05:17:53;6.50;99.90
29817;DHT22;16805;52.956;5.906;2024-02-23T05:20:19;6.50;99.90
29817;DHT22;16805;52.956;5.906;2024-02-23T05:22:45;6.50;99.90
29817;DHT22;16805;52.956;5.906;2024-02-23T05:25:16;6.50;99.90
29817;DHT22;16805;52.956;5.906;2024-02-23T05:27:42;6.50;99.90
29817;DHT22;16805;52.956;5.906;2024-02-23T05:30:10;6.50;99.90
29817;DHT22;16805;52.956;5.906;2024-02-23T05:32:36;6.50;99.90
29817;DHT22;16805;52.956;5.906;2024-02-23T05:35:02;6.50;99.90
29817;DHT22;16805;52.956;5.906;2024-02-23T05:37:32;6.60;99.90
29817;DHT22;16805;52.956;5.906;2024-02-23T05:40:01;6.60;99.90
29817;DHT22;16805;52.956;5.906;2024-02-23T05:42:30;6.60;99.90
29817;DHT22;16805;52.956;5.906;2024-02-23T05:44:58;6.60;99.90
29817;DHT22;16805;52.956;5.906;2024-02-23T05:47:24;6.60;99.90
29817;DHT22;16805;52.956;5.906;2024-02-23T05:49:51;6.60;99.90
29817;DHT22;16805;52.956;5.906;2024-02-23T05:52:17;6.60;99.90
29817;DHT22;16805;52.956;5.906;2024-02-23T05:54:43;6.60;99.90
29817;DHT22;16805;52.956;5.906;2024-02-23T05:57:09;6.60;99.90
29817;DHT22;16805;52.956;5.906;2024-02-23T05:59:35;6.50;99.90
29817;DHT22;16805;52.956;5.906;2024-02-23T06:02:01;6.50;99.90
29817;DHT22;16805;52.956;5.906;2024-02-23T06:04:27;6.50;99.90
29817;DHT22;16805;52.956;5.906;2024-02-23T06:06:53;6.50;99.90
29817;DHT22;16805;52.956;5.906;2024-02-23T06:09:21;6.50;99.90
29817;DHT22;16805;52.956;5.906;2024-02-23T06:11:46;6.50;99.90
29817;DHT22;16805;52.956;5.906;2024-02-23T06:14:13;6.50;99.90
29817;DHT22;16805;52.956;5.906;2024-02-23T06:16:41;6.50;99.90
29817;DHT22;16805;52.956;5.906;2024-02-23T06:19:09;6.50;99.90
29817;DHT22;16805;52.956;5.906;2024-02-23T06:21:34;6.50;99.90
29817;DHT22;16805;52.956;5.906;2024-02-23T06:24:00;6.40;99.90
29817;DHT22;16805;52.956;5.906;2024-02-23T06:26:27;6.40;99.90
29817;DHT22;16805;52.956;5.906;2024-02-23T06:28:53;6.40;99.90
29817;DHT22;16805;52.956;5.906;2024-02-23T06:31:23;6.40;99.90
29817;DHT22;16805;52.956;5.906;2024-02-23T06:33:49;6.40;99.90
29817;DHT22;16805;52.956;5.906;2024-02-23T06:36:19;6.30;99.90
29817;DHT22;16805;52.956;5.906;2024-02-23T06:38:46;6.30;99.90
29817;DHT22;16805;52.956;5.906;2024-02-23T06:41:15;6.30;99.90
29817;DHT22;16805;52.956;5.906;2024-02-23T06:43:41;6.30;99.90
29817;DHT22;16805;52.956;5.906;2024-02-23T06:46:11;6.30;99.90
29817;DHT22;16805;52.956;5.906;2024-02-23T06:48:37;6.30;99.90
29817;DHT22;16805;52.956;5.906;2024-02-23T06:51:05;6.30;99.90
29817;DHT22;16805;52.956;5.906;2024-02-23T06:53:32;6.30;99.90
29817;DHT22;16805;52.956;5.906;2024-02-23T06:55:58;6.30;99.90
29817;DHT22;16805;52.956;5.906;2024-02-23T06:58:27;6.30;99.90
29817;DHT22;16805;52.956;5.906;2024-02-23T07:00:58;6.30;99.90
29817;DHT22;16805;52.956;5.906;2024-02-23T07:03:27;6.30;99.90
29817;DHT22;16805;52.956;5.906;2024-02-23T07:06:05;6.30;99.90
29817;DHT22;16805;52.956;5.906;2024-02-23T07:08:32;6.30;99.90
29817;DHT22;16805;52.956;5.906;2024-02-23T07:11:04;6.30;99.90
29817;DHT22;16805;52.956;5.906;2024-02-23T07:13:31;6.40;99.90
29817;DHT22;16805;52.956;5.906;2024-02-23T07:16:37;6.40;99.90
29817;DHT22;16805;52.956;5.906;2024-02-23T07:19:26;6.40;99.90
29817;DHT22;16805;52.956;5.906;2024-02-23T07:21:51;6.40;99.90
29817;DHT22;16805;52.956;5.906;2024-02-23T07:24:17;6.40;99.90
29817;DHT22;16805;52.956;5.906;2024-02-23T07:26:43;6.40;99.90
29817;DHT22;16805;52.956;5.906;2024-02-23T07:29:09;6.40;99.90
29817;DHT22;16805;52.956;5.906;2024-02-23T07:31:36;6.40;99.90
29817;DHT22;16805;52.956;5.906;2024-02-23T07:34:02;6.40;99.90
29817;DHT22;16805;52.956;5.906;2024-02-23T07:36:28;6.40;99.90
29817;DHT22;16805;52.956;5.906;2024-02-23T07:39:06;6.40;99.90
29817;DHT22;16805;52.956;5.906;2024-02-23T07:41:32;6.30;99.90
29817;DHT22;16805;52.956;5.906;2024-02-23T07:43:58;6.30;99.90
29817;DHT22;16805;52.956;5.906;2024-02-23T07:46:31;6.30;99.90
29817;DHT22;16805;52.956;5.906;2024-02-23T07:52:41;6.30;99.90
29817;DHT22;16805;52.956;5.906;2024-02-23T07:55:08;6.30;99.90
29817;DHT22;16805;52.956;5.906;2024-02-23T07:57:35;6.30;99.90
29817;DHT22;16805;52.956;5.906;2024-02-23T08:00:04;6.30;99.90
29817;DHT22;16805;52.956;5.906;2024-02-23T08:02:30;6.40;99.90
29817;DHT22;16805;52.956;5.906;2024-02-23T08:04:56;6.30;99.90
29817;DHT22;16805;52.956;5.906;2024-02-23T08:07:23;6.30;99.90
29817;DHT22;16805;52.956;5.906;2024-02-23T08:09:51;6.30;99.90
29817;DHT22;16805;52.956;5.906;2024-02-23T08:12:17;6.30;99.90
29817;DHT22;16805;52.956;5.906;2024-02-23T08:14:42;6.30;99.90
29817;DHT22;16805;52.956;5.906;2024-02-23T08:17:10;6.40;99.90
29817;DHT22;16805;52.956;5.906;2024-02-23T08:19:35;6.40;99.90
29817;DHT22;16805;52.956;5.906;2024-02-23T08:22:01;6.40;99.90
29817;DHT22;16805;52.956;5.906;2024-02-23T08:24:26;6.40;99.90
29817;DHT22;16805;52.956;5.906;2024-02-23T08:26:52;6.40;99.90
29817;DHT22;16805;52.956;5.906;2024-02-23T08:29:19;6.40;99.90
29817;DHT22;16805;52.956;5.906;2024-02-23T08:31:44;6.40;99.90
29817;DHT22;16805;52.956;5.906;2024-02-23T08:34:10;6.40;99.90
29817;DHT22;16805;52.956;5.906;2024-02-23T08:36:36;6.40;99.90
29817;DHT22;16805;52.956;5.906;2024-02-23T08:39:01;6.50;99.90
29817;DHT22;16805;52.956;5.906;2024-02-23T08:41:28;6.50;99.90
29817;DHT22;16805;52.956;5.906;2024-02-23T08:43:54;6.50;99.90
29817;DHT22;16805;52.956;5.906;2024-02-23T08:46:21;6.50;99.90
29817;DHT22;16805;52.956;5.906;2024-02-23T08:48:48;6.50;99.90
29817;DHT22;16805;52.956;5.906;2024-02-23T08:51:14;6.50;99.90
29817;DHT22;16805;52.956;5.906;2024-02-23T08:53:40;6.50;99.90
29817;DHT22;16805;52.956;5.906;2024-02-23T08:56:07;6.50;99.90
29817;DHT22;16805;52.956;5.906;2024-02-23T08:58:33;6.50;99.90
29817;DHT22;16805;52.956;5.906;2024-02-23T09:01:00;6.60;99.90
29817;DHT22;16805;52.956;5.906;2024-02-23T09:03:26;6.60;99.90
29817;DHT22;16805;52.956;5.906;2024-02-23T09:05:51;6.60;99.90
29817;DHT22;16805;52.956;5.906;2024-02-23T09:08:17;6.60;99.90
29817;DHT22;16805;52.956;5.906;2024-02-23T09:10:44;6.60;99.90
29817;DHT22;16805;52.956;5.906;2024-02-23T09:13:11;6.70;99.90
29817;DHT22;16805;52.956;5.906;2024-02-23T09:15:37;6.70;99.90
29817;DHT22;16805;52.956;5.906;2024-02-23T09:18:03;6.70;99.90
29817;DHT22;16805;52.956;5.906;2024-02-23T09:20:30;6.70;99.90
29817;DHT22;16805;52.956;5.906;2024-02-23T09:22:56;6.70;99.90
29817;DHT22;16805;52.956;5.906;2024-02-23T09:25:23;6.70;99.90
29817;DHT22;16805;52.956;5.906;2024-02-23T09:27:50;6.70;99.90
29817;DHT22;16805;52.956;5.906;2024-02-23T09:30:19;6.70;99.90
29817;DHT22;16805;52.956;5.906;2024-02-23T09:32:45;6.70;99.90
29817;DHT22;16805;52.956;5.906;2024-02-23T09:35:10;6.70;99.90
29817;DHT22;16805;52.956;5.906;2024-02-23T09:37:36;6.70;99.90
29817;DHT22;16805;52.956;5.906;2024-02-23T09:40:03;6.80;99.90
29817;DHT22;16805;52.956;5.906;2024-02-23T09:42:31;6.80;99.90
29817;DHT22;16805;52.956;5.906;2024-02-23T09:45:00;6.80;99.90
29817;DHT22;16805;52.956;5.906;2024-02-23T09:47:27;6.80;99.90
29817;DHT22;16805;52.956;5.906;2024-02-23T09:49:54;6.80;99.90
29817;DHT22;16805;52.956;5.906;2024-02-23T09:52:27;6.80;99.90
29817;DHT22;16805;52.956;5.906;2024-02-23T09:54:54;6.80;99.90
29817;DHT22;16805;52.956;5.906;2024-02-23T09:57:21;6.80;99.90
29817;DHT22;16805;52.956;5.906;2024-02-23T09:59:52;6.80;99.90
29817;DHT22;16805;52.956;5.906;2024-02-23T10:02:21;6.70;99.90
29817;DHT22;16805;52.956;5.906;2024-02-23T10:04:51;6.70;99.90
29817;DHT22;16805;52.956;5.906;2024-02-23T10:07:20;6.70;99.90
29817;DHT22;16805;52.956;5.906;2024-02-23T10:09:48;6.70;99.90
29817;DHT22;16805;52.956;5.906;2024-02-23T10:12:15;6.70;99.90
29817;DHT22;16805;52.956;5.906;2024-02-23T10:14:42;6.70;99.90
29817;DHT22;16805;52.956;5.906;2024-02-23T10:17:09;6.80;99.90
29817;DHT22;16805;52.956;5.906;2024-02-23T10:19:35;6.80;99.90
29817;DHT22;16805;52.956;5.906;2024-02-23T10:22:00;6.80;99.90
29817;DHT22;16805;52.956;5.906;2024-02-23T10:24:27;6.80;99.90
29817;DHT22;16805;52.956;5.906;2024-02-23T10:26:54;6.90;99.90
29817;DHT22;16805;52.956;5.906;2024-02-23T10:29:25;6.90;99.90
29817;DHT22;16805;52.956;5.906;2024-02-23T10:31:51;6.90;99.90
29817;DHT22;16805;52.956;5.906;2024-02-23T10:34:19;6.90;99.90
29817;DHT22;16805;52.956;5.906;2024-02-23T10:36:45;6.90;99.90
29817;DHT22;16805;52.956;5.906;2024-02-23T10:39:18;6.90;99.90
29817;DHT22;16805;52.956;5.906;2024-02-23T10:41:56;6.90;99.90
29817;DHT22;16805;52.956;5.906;2024-02-23T10:44:24;6.90;99.90
29817;DHT22;16805;52.956;5.906;2024-02-23T10:46:53;6.90;99.90
29817;DHT22;16805;52.956;5.906;2024-02-23T10:49:20;6.90;99.90
29817;DHT22;16805;52.956;5.906;2024-02-23T10:51:51;6.90;99.90
29817;DHT22;16805;52.956;5.906;2024-02-23T10:54:18;6.90;99.90
29817;DHT22;16805;52.956;5.906;2024-02-23T10:56:48;6.90;99.90
29817;DHT22;16805;52.956;5.906;2024-02-23T10:59:14;6.90;99.90
29817;DHT22;16805;52.956;5.906;2024-02-23T11:01:48;6.90;99.90
29817;DHT22;16805;52.956;5.906;2024-02-23T11:04:16;7.00;99.90
29817;DHT22;16805;52.956;5.906;2024-02-23T11:06:42;7.00;99.90
29817;DHT22;16805;52.956;5.906;2024-02-23T11:09:12;7.00;99.90
29817;DHT22;16805;52.956;5.906;2024-02-23T11:11:38;7.00;99.90
29817;DHT22;16805;52.956;5.906;2024-02-23T11:14:31;7.00;99.90
29817;DHT22;16805;52.956;5.906;2024-02-23T11:16:58;7.00;99.90
29817;DHT22;16805;52.956;5.906;2024-02-23T11:19:35;7.00;99.90
29817;DHT22;16805;52.956;5.906;2024-02-23T11:22:01;7.10;99.90
29817;DHT22;16805;52.956;5.906;2024-02-23T11:24:31;7.10;99.90
29817;DHT22;16805;52.956;5.906;2024-02-23T11:27:00;7.10;99.90
29817;DHT22;16805;52.956;5.906;2024-02-23T11:29:33;7.20;99.90
29817;DHT22;16805;52.956;5.906;2024-02-23T11:32:00;7.20;99.90
29817;DHT22;16805;52.956;5.906;2024-02-23T11:34:29;7.20;99.90
29817;DHT22;16805;52.956;5.906;2024-02-23T11:36:56;7.20;99.90
29817;DHT22;16805;52.956;5.906;2024-02-23T11:39:23;7.20;99.90
29817;DHT22;16805;52.956;5.906;2024-02-23T11:41:49;7.30;99.90
29817;DHT22;16805;52.956;5.906;2024-02-23T11:44:15;7.30;99.90
29817;DHT22;16805;52.956;5.906;2024-02-23T11:46:43;7.30;99.90
29817;DHT22;16805;52.956;5.906;2024-02-23T11:49:10;7.30;99.90
29817;DHT22;16805;52.956;5.906;2024-02-23T11:51:36;7.30;99.90
29817;DHT22;16805;52.956;5.906;2024-02-23T11:54:02;7.40;99.90
29817;DHT22;16805;52.956;5.906;2024-02-23T11:56:29;7.40;99.90
29817;DHT22;16805;52.956;5.906;2024-02-23T11:58:55;7.40;99.90
29817;DHT22;16805;52.956;5.906;2024-02-23T12:01:21;7.40;99.90
29817;DHT22;16805;52.956;5.906;2024-02-23T12:03:50;7.40;99.90
29817;DHT22;16805;52.956;5.906;2024-02-23T12:06:17;7.50;99.90
29817;DHT22;16805;52.956;5.906;2024-02-23T12:08:42;7.50;99.90
29817;DHT22;16805;52.956;5.906;2024-02-23T12:11:11;7.50;99.90
29817;DHT22;16805;52.956;5.906;2024-02-23T12:13:37;7.60;99.90
29817;DHT22;16805;52.956;5.906;2024-02-23T12:16:03;7.60;99.90
29817;DHT22;16805;52.956;5.906;2024-02-23T12:18:32;7.60;99.90
29817;DHT22;16805;52.956;5.906;2024-02-23T12:21:05;7.70;99.90
29817;DHT22;16805;52.956;5.906;2024-02-23T12:23:48;7.70;99.90
29817;DHT22;16805;52.956;5.906;2024-02-23T12:26:16;7.70;99.90
29817;DHT22;16805;52.956;5.906;2024-02-23T12:28:42;7.70;99.90
29817;DHT22;16805;52.956;5.906;2024-02-23T12:31:08;7.80;99.90
29817;DHT22;16805;52.956;5.906;2024-02-23T12:33:38;7.80;99.90
29817;DHT22;16805;52.956;5.906;2024-02-23T12:36:07;7.80;99.90
29817;DHT22;16805;52.956;5.906;2024-02-23T12:38:37;7.80;99.90
29817;DHT22;16805;52.956;5.906;2024-02-23T12:41:02;7.80;99.90
29817;DHT22;16805;52.956;5.906;2024-02-23T12:43:29;7.80;99.90
29817;DHT22;16805;52.956;5.906;2024-02-23T12:45:56;7.80;99.90
29817;DHT22;16805;52.956;5.906;2024-02-23T12:48:22;7.90;99.90
29817;DHT22;16805;52.956;5.906;2024-02-23T12:50:49;7.90;99.90
29817;DHT22;16805;52.956;5.906;2024-02-23T12:53:37;8.00;99.90
29817;DHT22;16805;52.956;5.906;2024-02-23T12:56:07;8.00;99.90
29817;DHT22;16805;52.956;5.906;2024-02-23T12:58:39;8.00;99.90
29817;DHT22;16805;52.956;5.906;2024-02-23T13:01:05;8.10;99.90
29817;DHT22;16805;52.956;5.906;2024-02-23T13:03:32;8.10;99.90
29817;DHT22;16805;52.956;5.906;2024-02-23T13:06:00;8.10;99.90
29817;DHT22;16805;52.956;5.906;2024-02-23T13:08:26;8.10;99.90
29817;DHT22;16805;52.956;5.906;2024-02-23T13:10:53;8.10;99.90
29817;DHT22;16805;52.956;5.906;2024-02-23T13:13:19;8.10;99.90
29817;DHT22;16805;52.956;5.906;2024-02-23T13:15:46;8.10;99.90
29817;DHT22;16805;52.956;5.906;2024-02-23T13:18:12;8.10;99.90
29817;DHT22;16805;52.956;5.906;2024-02-23T13:20:40;8.10;99.90
29817;DHT22;16805;52.956;5.906;2024-02-23T13:23:09;8.10;99.90
29817;DHT22;16805;52.956;5.906;2024-02-23T13:25:37;8.10;99.90
29817;DHT22;16805;52.956;5.906;2024-02-23T13:28:04;8.10;99.90
29817;DHT22;16805;52.956;5.906;2024-02-23T13:30:30;8.10;99.90
29817;DHT22;16805;52.956;5.906;2024-02-23T13:32:56;8.10;99.90
29817;DHT22;16805;52.956;5.906;2024-02-23T13:35:22;8.00;99.90
29817;DHT22;16805;52.956;5.906;2024-02-23T13:37:47;8.10;99.90
29817;DHT22;16805;52.956;5.906;2024-02-23T13:40:16;8.10;99.90
29817;DHT22;16805;52.956;5.906;2024-02-23T13:42:42;8.10;99.90
29817;DHT22;16805;52.956;5.906;2024-02-23T13:45:08;8.20;99.90
29817;DHT22;16805;52.956;5.906;2024-02-23T13:47:35;8.30;99.90
29817;DHT22;16805;52.956;5.906;2024-02-23T13:50:02;8.30;99.90
29817;DHT22;16805;52.956;5.906;2024-02-23T13:52:30;8.30;99.90
29817;DHT22;16805;52.956;5.906;2024-02-23T13:54:56;8.30;99.90
29817;DHT22;16805;52.956;5.906;2024-02-23T13:57:22;8.30;99.90
29817;DHT22;16805;52.956;5.906;2024-02-23T13:59:49;8.30;99.90
29817;DHT22;16805;52.956;5.906;2024-02-23T14:02:16;8.40;99.90
29817;DHT22;16805;52.956;5.906;2024-02-23T14:04:41;8.30;99.90
29817;DHT22;16805;52.956;5.906;2024-02-23T14:07:07;8.30;99.90
29817;DHT22;16805;52.956;5.906;2024-02-23T14:09:34;8.40;99.90
29817;DHT22;16805;52.956;5.906;2024-02-23T14:11:59;8.30;99.90
29817;DHT22;16805;52.956;5.906;2024-02-23T14:14:25;8.40;99.90
29817;DHT22;16805;52.956;5.906;2024-02-23T14:16:51;8.40;99.90
29817;DHT22;16805;52.956;5.906;2024-02-23T14:19:16;8.40;99.90
29817;DHT22;16805;52.956;5.906;2024-02-23T14:21:43;8.30;99.90
29817;DHT22;16805;52.956;5.906;2024-02-23T14:24:08;8.40;99.90
29817;DHT22;16805;52.956;5.906;2024-02-23T14:26:34;8.40;99.90
29817;DHT22;16805;52.956;5.906;2024-02-23T14:29:00;8.30;99.90
29817;DHT22;16805;52.956;5.906;2024-02-23T14:31:27;8.40;99.90
29817;DHT22;16805;52.956;5.906;2024-02-23T14:33:52;8.30;99.90
29817;DHT22;16805;52.956;5.906;2024-02-23T14:36:19;8.30;99.90
29817;DHT22;16805;52.956;5.906;2024-02-23T14:38:46;8.30;99.90
29817;DHT22;16805;52.956;5.906;2024-02-23T14:41:11;8.30;99.90
29817;DHT22;16805;52.956;5.906;2024-02-23T14:43:37;8.30;99.90
29817;DHT22;16805;52.956;5.906;2024-02-23T14:46:03;8.20;99.90
29817;DHT22;16805;52.956;5.906;2024-02-23T14:48:30;8.20;99.90
29817;DHT22;16805;52.956;5.906;2024-02-23T14:50:56;8.20;99.90
29817;DHT22;16805;52.956;5.906;2024-02-23T14:53:23;8.20;99.90
29817;DHT22;16805;52.956;5.906;2024-02-23T14:55:49;8.20;99.90
29817;DHT22;16805;52.956;5.906;2024-02-23T14:58:15;8.10;99.90
29817;DHT22;16805;52.956;5.906;2024-02-23T15:00:42;8.10;99.90
29817;DHT22;16805;52.956;5.906;2024-02-23T15:03:09;8.10;99.90
29817;DHT22;16805;52.956;5.906;2024-02-23T15:05:35;8.10;99.90
29817;DHT22;16805;52.956;5.906;2024-02-23T15:08:00;8.10;99.90
29817;DHT22;16805;52.956;5.906;2024-02-23T15:10:26;8.10;99.90
29817;DHT22;16805;52.956;5.906;2024-02-23T15:12:53;8.10;99.90
29817;DHT22;16805;52.956;5.906;2024-02-23T15:15:20;8.10;99.90
29817;DHT22;16805;52.956;5.906;2024-02-23T15:17:46;8.10;99.90
29817;DHT22;16805;52.956;5.906;2024-02-23T15:20:14;8.10;99.90
29817;DHT22;16805;52.956;5.906;2024-02-23T15:22:41;8.10;99.90
29817;DHT22;16805;52.956;5.906;2024-02-23T15:25:08;8.20;99.90
29817;DHT22;16805;52.956;5.906;2024-02-23T15:27:35;8.20;99.90
29817;DHT22;16805;52.956;5.906;2024-02-23T15:30:01;8.10;99.90
29817;DHT22;16805;52.956;5.906;2024-02-23T15:32:27;8.20;99.90
29817;DHT22;16805;52.956;5.906;2024-02-23T15:34:52;8.10;99.90
29817;DHT22;16805;52.956;5.906;2024-02-23T15:37:18;8.10;99.90
29817;DHT22;16805;52.956;5.906;2024-02-23T15:39:44;8.10;99.90
29817;DHT22;16805;52.956;5.906;2024-02-23T15:42:10;8.10;99.90
29817;DHT22;16805;52.956;5.906;2024-02-23T15:44:36;8.10;99.90
29817;DHT22;16805;52.956;5.906;2024-02-23T15:47:01;8.10;99.90
29817;DHT22;16805;52.956;5.906;2024-02-23T15:49:27;8.10;99.90
29817;DHT22;16805;52.956;5.906;2024-02-23T15:51:53;8.10;99.90
29817;DHT22;16805;52.956;5.906;2024-02-23T15:54:18;8.20;99.90
29817;DHT22;16805;52.956;5.906;2024-02-23T15:56:45;8.10;99.90
29817;DHT22;16805;52.956;5.906;2024-02-23T15:59:11;8.10;99.90
29817;DHT22;16805;52.956;5.906;2024-02-23T16:01:37;8.10;99.90
29817;DHT22;16805;52.956;5.906;2024-02-23T16:04:04;8.10;99.90
29817;DHT22;16805;52.956;5.906;2024-02-23T16:06:29;8.10;99.90
29817;DHT22;16805;52.956;5.906;2024-02-23T16:08:59;8.10;99.90
29817;DHT22;16805;52.956;5.906;2024-02-23T16:11:28;8.10;99.90
29817;DHT22;16805;52.956;5.906;2024-02-23T16:13:57;8.10;99.90
29817;DHT22;16805;52.956;5.906;2024-02-23T16:16:29;8.10;99.90
29817;DHT22;16805;52.956;5.906;2024-02-23T16:18:55;8.10;99.90
29817;DHT22;16805;52.956;5.906;2024-02-23T16:21:21;8.00;99.90
29817;DHT22;16805;52.956;5.906;2024-02-23T16:23:49;7.90;99.90
29817;DHT22;16805;52.956;5.906;2024-02-23T16:58:14;7.70;99.90
29817;DHT22;16805;52.956;5.906;2024-02-23T17:03:16;7.60;99.90
29817;DHT22;16805;52.956;5.906;2024-02-23T17:08:21;7.70;99.90
29817;DHT22;16805;52.956;5.906;2024-02-23T17:10:47;7.60;99.90
29817;DHT22;16805;52.956;5.906;2024-02-23T17:13:14;7.60;99.90
29817;DHT22;16805;52.956;5.906;2024-02-23T17:15:42;7.60;99.90
29817;DHT22;16805;52.956;5.906;2024-02-23T17:20:46;7.60;99.90
29817;DHT22;16805;52.956;5.906;2024-02-23T17:23:12;7.50;99.90
29817;DHT22;16805;52.956;5.906;2024-02-23T17:25:38;7.50;99.90
29817;DHT22;16805;52.956;5.906;2024-02-23T17:28:07;7.50;99.90
29817;DHT22;16805;52.956;5.906;2024-02-23T17:30:34;7.50;99.90
29817;DHT22;16805;52.956;5.906;2024-02-23T17:33:00;7.50;99.90
29817;DHT22;16805;52.956;5.906;2024-02-23T17:35:25;7.50;99.90
29817;DHT22;16805;52.956;5.906;2024-02-23T17:37:53;7.40;99.90
29817;DHT22;16805;52.956;5.906;2024-02-23T17:40:22;7.40;99.90
29817;DHT22;16805;52.956;5.906;2024-02-23T17:42:54;7.40;99.90
29817;DHT22;16805;52.956;5.906;2024-02-23T17:45:20;7.40;99.90
29817;DHT22;16805;52.956;5.906;2024-02-23T17:47:46;7.40;99.90
29817;DHT22;16805;52.956;5.906;2024-02-23T17:50:11;7.40;99.90
29817;DHT22;16805;52.956;5.906;2024-02-23T17:52:38;7.30;99.90
29817;DHT22;16805;52.956;5.906;2024-02-23T17:55:04;7.30;99.90
29817;DHT22;16805;52.956;5.906;2024-02-23T17:57:30;7.30;99.90
29817;DHT22;16805;52.956;5.906;2024-02-23T17:59:56;7.30;99.90
29817;DHT22;16805;52.956;5.906;2024-02-23T18:02:23;7.30;99.90
29817;DHT22;16805;52.956;5.906;2024-02-23T18:04:49;7.30;99.90
29817;DHT22;16805;52.956;5.906;2024-02-23T18:07:15;7.30;99.90
29817;DHT22;16805;52.956;5.906;2024-02-23T18:09:41;7.30;99.90
29817;DHT22;16805;52.956;5.906;2024-02-23T18:12:07;7.30;99.90
29817;DHT22;16805;52.956;5.906;2024-02-23T18:14:33;7.30;99.90